createdAt,value
2023-04-24T00:00:21.185Z,97127.56
2023-04-24T00:02:52.501Z,97128.44
2023-04-24T00:05:20.984Z,97135.78
2023-04-24T00:07:49.680Z,97138.47
2023-04-24T00:10:18.732Z,97135.19
2023-04-24T00:12:46.934Z,97130.44
2023-04-24T00:15:15.615Z,97128.44
2023-04-24T00:17:45.482Z,97138.34
2023-04-24T00:20:15.685Z,97128.84
2023-04-24T00:22:46.084Z,97129.59
2023-04-24T00:25:15.490Z,97129.00
2023-04-24T00:27:44.616Z,97134.59
2023-04-24T00:30:14.445Z,97144.84
2023-04-24T00:32:42.982Z,97131.56
2023-04-24T00:35:13.577Z,97134.59
2023-04-24T00:37:43.049Z,97124.81
2023-04-24T00:40:14.670Z,97122.75
2023-04-24T00:42:45.165Z,97125.22
2023-04-24T00:45:14.495Z,97123.59
2023-04-24T00:47:45.391Z,97116.16
2023-04-24T00:50:14.457Z,97113.44
2023-04-24T00:52:45.598Z,97102.09
2023-04-24T00:55:15.109Z,97115.00
2023-04-24T00:57:46.233Z,97110.34
2023-04-24T01:00:19.438Z,97111.13
2023-04-24T01:02:50.719Z,97103.31
2023-04-24T01:05:19.914Z,97117.44
2023-04-24T01:07:58.078Z,97116.69
2023-04-24T01:10:28.864Z,97112.84
2023-04-24T01:13:01.252Z,97120.63
2023-04-24T01:15:29.240Z,97119.88
2023-04-24T01:17:57.456Z,97113.66
2023-04-24T01:20:27.191Z,97109.66
2023-04-24T01:23:03.256Z,97112.06
2023-04-24T01:25:34.696Z,97107.34
2023-04-24T01:28:02.738Z,97118.22
2023-04-24T01:30:31.542Z,97117.41
2023-04-24T01:33:06.257Z,97123.25
2023-04-24T01:35:39.990Z,97112.72
2023-04-24T01:38:11.799Z,97120.19
2023-04-24T01:40:41.113Z,97116.00
2023-04-24T01:43:09.214Z,97112.06
2023-04-24T01:45:37.091Z,97118.28
2023-04-24T01:48:07.723Z,97118.66
2023-04-24T01:50:35.675Z,97124.94
2023-04-24T01:53:05.329Z,97121.00
2023-04-24T01:55:35.540Z,97119.84
2023-04-24T01:58:03.960Z,97117.53
2023-04-24T02:00:32.248Z,97114.72
2023-04-24T02:03:03.299Z,97111.22
2023-04-24T02:05:31.829Z,97101.13
2023-04-24T02:07:59.529Z,97099.59
2023-04-24T02:10:30.357Z,97088.66
2023-04-24T02:13:05.636Z,97081.59
2023-04-24T02:15:40.269Z,97083.09
2023-04-24T02:18:09.905Z,97087.72
2023-04-24T02:20:41.404Z,97085.41
2023-04-24T02:23:09.385Z,97081.44
2023-04-24T02:25:40.789Z,97075.22
2023-04-24T02:28:09.910Z,97079.81
2023-04-24T02:30:37.701Z,97072.09
2023-04-24T02:33:08.245Z,97072.81
2023-04-24T02:35:37.026Z,97076.69
2023-04-24T02:38:05.832Z,97079.06
2023-04-24T02:40:34.524Z,97078.72
2023-04-24T02:43:02.703Z,97071.22
2023-04-24T02:45:38.123Z,97075.97
2023-04-24T02:48:11.145Z,97079.13
2023-04-24T02:53:20.623Z,97068.97
2023-04-24T02:55:49.065Z,97069.03
2023-04-24T02:58:20.963Z,97078.34
2023-04-24T03:00:51.366Z,97073.63
2023-04-24T03:03:21.671Z,97074.78
2023-04-24T03:05:49.655Z,97071.72
2023-04-24T03:08:19.512Z,97068.16
2023-04-24T03:10:48.395Z,97069.28
2023-04-24T03:13:18.012Z,97072.78
2023-04-24T03:15:48.381Z,97061.88
2023-04-24T03:18:18.082Z,97056.41
2023-04-24T03:20:48.287Z,97056.78
2023-04-24T03:23:16.140Z,97061.47
2023-04-24T03:25:44.769Z,97061.84
2023-04-24T03:28:13.063Z,97068.81
2023-04-24T03:30:41.627Z,97061.78
2023-04-24T03:33:09.299Z,97066.50
2023-04-24T03:35:39.718Z,97070.34
2023-04-24T03:38:07.744Z,97066.88
2023-04-24T03:40:36.765Z,97069.66
2023-04-24T03:43:04.637Z,97062.53
2023-04-24T03:45:34.388Z,97058.72
2023-04-24T03:48:03.395Z,97065.22
2023-04-24T03:50:33.096Z,97060.16
2023-04-24T03:53:05.665Z,97067.13
2023-04-24T03:55:35.714Z,97071.91
2023-04-24T03:58:07.867Z,97075.84
2023-04-24T04:00:36.262Z,97080.38
2023-04-24T04:03:07.213Z,97070.59
2023-04-24T04:05:45.456Z,97081.94
2023-04-24T04:08:27.965Z,97078.47
2023-04-24T04:10:57.606Z,97075.28
2023-04-24T04:13:28.678Z,97090.81
2023-04-24T04:15:57.597Z,97083.09
2023-04-24T04:18:31.469Z,97077.16
2023-04-24T04:21:09.587Z,97072.13
2023-04-24T04:23:42.997Z,97077.16
2023-04-24T04:26:20.786Z,97078.78
2023-04-24T04:29:10.986Z,97081.00
2023-04-24T04:31:43.696Z,97071.00
2023-04-24T04:34:16.234Z,97074.09
2023-04-24T04:36:49.746Z,97077.50
2023-04-24T04:39:22.382Z,97074.03
2023-04-24T04:41:56.923Z,97078.66
2023-04-24T04:44:37.852Z,97072.53
2023-04-24T04:47:12.478Z,97079.00
2023-04-24T04:49:41.093Z,97074.75
2023-04-24T04:52:14.348Z,97071.63
2023-04-24T04:54:48.543Z,97079.00
2023-04-24T04:57:17.564Z,97079.41
2023-04-24T04:59:46.729Z,97074.72
2023-04-24T05:02:18.769Z,97080.97
2023-04-24T05:04:51.877Z,97087.16
2023-04-24T05:07:23.822Z,97090.50
2023-04-24T05:10:04.550Z,97095.13
2023-04-24T05:12:34.870Z,97095.94
2023-04-24T05:15:05.228Z,97098.38
2023-04-24T05:17:42.140Z,97103.91
2023-04-24T05:20:21.958Z,97102.50
2023-04-24T05:22:54.154Z,97103.31
2023-04-24T05:25:39.652Z,97113.47
2023-04-24T05:28:11.773Z,97106.44
2023-04-24T05:30:41.284Z,97111.59
2023-04-24T05:33:11.309Z,97115.91
2023-04-24T05:35:48.722Z,97126.78
2023-04-24T05:38:29.730Z,97124.47
2023-04-24T05:41:05.020Z,97123.00
2023-04-24T05:43:47.145Z,97131.84
2023-04-24T05:46:16.901Z,97133.84
2023-04-24T05:48:49.135Z,97128.44
2023-04-24T05:51:24.502Z,97130.00
2023-04-24T05:53:56.159Z,97125.34
2023-04-24T05:56:29.159Z,97135.13
2023-04-24T05:58:58.146Z,97138.69
2023-04-24T06:01:28.762Z,97144.56
2023-04-24T06:03:57.836Z,97138.69
2023-04-24T06:06:28.453Z,97144.91
2023-04-24T06:08:56.687Z,97131.75
2023-04-24T06:11:35.270Z,97144.25
2023-04-24T06:14:06.112Z,97135.78
2023-04-24T06:16:33.960Z,97144.03
2023-04-24T06:19:01.660Z,97142.06
2023-04-24T06:21:30.516Z,97145.53
2023-04-24T06:23:59.092Z,97142.81
2023-04-24T06:26:28.468Z,97150.88
2023-04-24T06:28:57.068Z,97152.78
2023-04-24T06:31:26.486Z,97156.69
2023-04-24T06:33:55.544Z,97157.47
2023-04-24T06:36:24.067Z,97169.06
2023-04-24T06:38:58.028Z,97177.69
2023-04-24T06:41:27.922Z,97189.03
2023-04-24T06:44:02.404Z,97173.66
2023-04-24T06:46:31.606Z,97166.41
2023-04-24T06:49:02.982Z,97178.06
2023-04-24T06:51:34.373Z,97175.84
2023-04-24T06:54:03.584Z,97179.00
2023-04-24T06:56:35.596Z,97173.56
2023-04-24T06:59:08.894Z,97184.59
2023-04-24T07:01:37.861Z,97188.06
2023-04-24T07:04:08.115Z,97190.47
2023-04-24T07:06:37.783Z,97195.66
2023-04-24T07:09:10.581Z,97198.03
2023-04-24T07:11:42.299Z,97183.94
2023-04-24T07:14:18.067Z,97200.06
2023-04-24T07:16:46.232Z,97201.34
2023-04-24T07:19:14.762Z,97210.06
2023-04-24T07:21:42.943Z,97200.81
2023-04-24T07:24:11.903Z,97208.69
2023-04-24T07:26:41.538Z,97215.00
2023-04-24T07:29:18.650Z,97214.63
2023-04-24T07:31:47.987Z,97215.72
2023-04-24T07:34:17.972Z,97216.56
2023-04-24T07:36:47.189Z,97222.38
2023-04-24T07:39:15.297Z,97219.28
2023-04-24T07:41:46.409Z,97220.06
2023-04-24T07:44:15.300Z,97228.66
2023-04-24T07:46:45.804Z,97224.69
2023-04-24T07:49:15.811Z,97230.16
2023-04-24T07:51:49.466Z,97237.28
2023-04-24T07:54:17.682Z,97246.03
2023-04-24T07:56:47.176Z,97240.50
2023-04-24T07:59:19.476Z,97238.53
2023-04-24T08:01:50.573Z,97240.72
2023-04-24T08:04:23.542Z,97244.72
2023-04-24T08:06:55.361Z,97242.38
2023-04-24T08:09:26.437Z,97244.72
2023-04-24T08:11:55.902Z,97241.13
2023-04-24T08:14:25.568Z,97242.94
2023-04-24T08:16:57.619Z,97252.25
2023-04-24T08:19:27.251Z,97249.94
2023-04-24T08:21:56.684Z,97241.50
2023-04-24T08:24:33.520Z,97259.44
2023-04-24T08:27:04.625Z,97257.03
2023-04-24T08:29:33.721Z,97269.34
2023-04-24T08:32:07.808Z,97265.34
2023-04-24T08:34:40.164Z,97275.19
2023-04-24T08:37:08.100Z,97276.13
2023-04-24T08:39:35.846Z,97277.13
2023-04-24T08:42:08.759Z,97274.88
2023-04-24T08:44:38.039Z,97282.88
2023-04-24T08:47:09.569Z,97283.63
2023-04-24T08:49:38.136Z,97281.59
2023-04-24T08:52:06.959Z,97284.44
2023-04-24T08:54:36.307Z,97282.97
2023-04-24T08:57:05.486Z,97285.34
2023-04-24T08:59:33.592Z,97287.53
2023-04-24T09:02:02.197Z,97282.06
2023-04-24T09:04:32.397Z,97286.56
2023-04-24T09:07:00.694Z,97270.53
2023-04-24T09:09:32.049Z,97263.69
2023-04-24T09:12:00.663Z,97276.88
2023-04-24T09:14:29.026Z,97277.66
2023-04-24T09:16:56.768Z,97274.88
2023-04-24T09:19:24.665Z,97267.94
2023-04-24T09:21:55.155Z,97273.44
2023-04-24T09:24:24.520Z,97260.59
2023-04-24T09:27:00.227Z,97247.19
2023-04-24T09:29:28.002Z,97252.91
2023-04-24T09:31:55.982Z,97251.88
2023-04-24T09:34:25.709Z,97261.97
2023-04-24T09:36:56.391Z,97266.66
2023-04-24T09:39:24.084Z,97258.41
2023-04-24T09:41:53.168Z,97257.19
2023-04-24T09:44:22.883Z,97265.78
2023-04-24T09:46:53.358Z,97255.59
2023-04-24T09:49:25.811Z,97247.09
2023-04-24T09:52:04.942Z,97267.00
2023-04-24T09:54:32.788Z,97250.28
2023-04-24T09:57:01.415Z,97259.63
2023-04-24T09:59:29.559Z,97270.63
2023-04-24T10:01:59.914Z,97253.72
2023-04-24T10:04:29.885Z,97258.28
2023-04-24T10:06:59.546Z,97266.69
2023-04-24T10:09:28.626Z,97267.44
2023-04-24T10:11:57.009Z,97254.09
2023-04-24T10:14:27.022Z,97270.59
2023-04-24T10:16:57.487Z,97258.53
2023-04-24T10:19:27.868Z,97259.94
2023-04-24T10:21:56.833Z,97259.94
2023-04-24T10:24:26.024Z,97267.34
2023-04-24T10:26:54.537Z,97252.66
2023-04-24T10:29:23.416Z,97245.50
2023-04-24T10:31:51.355Z,97263.63
2023-04-24T10:34:22.867Z,97265.31
2023-04-24T10:36:55.788Z,97250.59
2023-04-24T10:39:27.636Z,97263.94
2023-04-24T10:41:58.343Z,97289.81
2023-04-24T10:44:26.430Z,97289.34
2023-04-24T10:46:55.885Z,97298.84
2023-04-24T10:49:30.943Z,97302.34
2023-04-24T10:52:03.114Z,97320.66
2023-04-24T10:54:37.266Z,97315.13
2023-04-24T10:57:33.629Z,97327.88
2023-04-24T11:00:20.506Z,97339.75
2023-04-24T11:02:51.739Z,97321.69
2023-04-24T11:05:20.848Z,97334.13
2023-04-24T11:08:14.694Z,97330.44
2023-04-24T11:10:47.226Z,97340.94
2023-04-24T11:13:17.690Z,97332.88
2023-04-24T11:15:45.616Z,97347.47
2023-04-24T11:18:17.858Z,97331.91
2023-04-24T11:20:46.031Z,97334.00
2023-04-24T11:23:15.211Z,97339.16
2023-04-24T11:25:44.872Z,97344.69
2023-04-24T11:28:17.252Z,97346.69
2023-04-24T11:30:44.935Z,97344.31
2023-04-24T11:33:13.039Z,97334.94
2023-04-24T11:35:42.706Z,97327.13
2023-04-24T11:38:24.180Z,97329.38
2023-04-24T11:40:54.479Z,97328.66
2023-04-24T11:43:23.153Z,97333.69
2023-04-24T11:45:51.220Z,97336.44
2023-04-24T11:48:23.750Z,97312.91
2023-04-24T11:50:53.632Z,97325.69
2023-04-24T11:53:22.613Z,97351.81
2023-04-24T11:55:50.526Z,97312.53
2023-04-24T11:58:24.174Z,97354.97
2023-04-24T12:00:59.491Z,97358.63
2023-04-24T12:03:29.901Z,97364.84
2023-04-24T12:06:07.681Z,97369.56
2023-04-24T12:08:37.919Z,97361.78
2023-04-24T12:11:08.117Z,97366.94
2023-04-24T12:13:38.032Z,97344.72
2023-04-24T12:16:06.872Z,97360.25
2023-04-24T12:18:35.051Z,97371.38
2023-04-24T12:21:23.302Z,97377.06
2023-04-24T12:23:51.970Z,97381.94
2023-04-24T12:26:21.546Z,97374.00
2023-04-24T12:28:51.589Z,97366.97
2023-04-24T12:31:22.917Z,97355.25
2023-04-24T12:33:51.354Z,97366.16
2023-04-24T12:36:19.216Z,97359.78
2023-04-24T12:38:47.598Z,97362.28
2023-04-24T12:41:16.204Z,97370.09
2023-04-24T12:43:55.749Z,97366.81
2023-04-24T12:46:23.523Z,97376.56
2023-04-24T12:48:52.504Z,97367.69
2023-04-24T12:51:20.532Z,97373.97
2023-04-24T12:53:48.223Z,97381.03
2023-04-24T12:56:18.251Z,97377.13
2023-04-24T12:58:46.018Z,97377.13
2023-04-24T13:01:15.221Z,97384.06
2023-04-24T13:03:43.747Z,97395.84
2023-04-24T13:06:11.831Z,97388.19
2023-04-24T13:08:39.570Z,97394.13
2023-04-24T13:11:07.216Z,97383.53
2023-04-24T13:13:34.943Z,97393.06
2023-04-24T13:16:03.241Z,97389.50
2023-04-24T13:18:32.350Z,97383.59
2023-04-24T13:21:00.188Z,97386.59
2023-04-24T13:23:28.941Z,97382.50
2023-04-24T13:25:58.654Z,97383.88
2023-04-24T13:28:26.619Z,97386.94
2023-04-24T13:30:54.330Z,97395.06
2023-04-24T13:33:22.328Z,97390.66
2023-04-24T13:35:51.693Z,97402.41
2023-04-24T13:38:22.436Z,97407.06
2023-04-24T13:40:50.682Z,97407.91
2023-04-24T13:43:18.805Z,97384.16
2023-04-24T13:45:46.615Z,97382.97
2023-04-24T13:48:16.359Z,97407.31
2023-04-24T13:50:45.058Z,97416.41
2023-04-24T13:53:15.820Z,97412.81
2023-04-24T13:55:44.010Z,97404.13
2023-04-24T13:58:12.500Z,97399.41
2023-04-24T14:00:40.734Z,97399.28
2023-04-24T14:03:08.574Z,97386.84
2023-04-24T14:05:38.330Z,97402.41
2023-04-24T14:08:07.063Z,97396.50
2023-04-24T14:10:36.454Z,97400.88
2023-04-24T14:13:06.658Z,97398.88
2023-04-24T14:15:37.266Z,97391.25
2023-04-24T14:18:07.645Z,97390.38
2023-04-24T14:20:36.143Z,97383.56
2023-04-24T14:23:04.414Z,97389.72
2023-04-24T14:25:32.797Z,97392.88
2023-04-24T14:28:02.183Z,97392.66
2023-04-24T14:30:30.036Z,97393.38
2023-04-24T14:32:58.066Z,97388.75
2023-04-24T14:35:28.656Z,97399.66
2023-04-24T14:37:57.403Z,97394.88
2023-04-24T14:42:58.204Z,97394.75
2023-04-24T14:45:27.869Z,97400.88
2023-04-24T14:47:56.303Z,97396.41
2023-04-24T14:50:24.962Z,97409.88
2023-04-24T14:52:52.737Z,97403.41
2023-04-24T14:55:20.746Z,97417.03
2023-04-24T14:57:51.759Z,97409.56
2023-04-24T15:00:24.361Z,97400.53
2023-04-24T15:02:53.692Z,97394.94
2023-04-24T15:05:22.211Z,97394.03
2023-04-24T15:07:51.539Z,97405.00
2023-04-24T15:10:19.552Z,97396.16
2023-04-24T15:12:55.939Z,97407.06
2023-04-24T15:15:23.688Z,97409.47
2023-04-24T15:17:54.598Z,97412.47
2023-04-24T15:20:22.652Z,97402.28
2023-04-24T15:22:50.355Z,97411.72
2023-04-24T15:25:18.738Z,97399.78
2023-04-24T15:27:48.323Z,97398.97
2023-04-24T15:30:16.329Z,97410.03
2023-04-24T15:32:47.804Z,97415.97
2023-04-24T15:35:24.734Z,97410.97
2023-04-24T15:37:52.880Z,97411.63
2023-04-24T15:40:20.890Z,97406.19
2023-04-24T15:42:50.191Z,97404.97
2023-04-24T15:45:19.240Z,97417.97
2023-04-24T15:47:48.166Z,97396.94
2023-04-24T15:50:17.643Z,97406.28
2023-04-24T15:52:45.663Z,97400.78
2023-04-24T15:55:14.255Z,97400.72
2023-04-24T15:57:44.980Z,97396.00
2023-04-24T16:00:13.814Z,97412.44
2023-04-24T16:02:42.207Z,97421.81
2023-04-24T16:05:22.392Z,97410.75
2023-04-24T16:07:51.726Z,97423.16
2023-04-24T16:10:19.614Z,97425.88
2023-04-24T16:12:47.846Z,97430.09
2023-04-24T16:15:16.992Z,97432.53
2023-04-24T16:17:51.176Z,97439.13
2023-04-24T16:20:19.245Z,97438.00
2023-04-24T16:22:47.631Z,97434.78
2023-04-24T16:25:16.790Z,97441.78
2023-04-24T16:27:44.758Z,97446.56
2023-04-24T16:30:14.660Z,97438.03
2023-04-24T16:32:44.907Z,97445.00
2023-04-24T16:35:13.062Z,97444.59
2023-04-24T16:37:42.436Z,97437.28
2023-04-24T16:40:12.914Z,97430.97
2023-04-24T16:42:42.375Z,97447.22
2023-04-24T16:45:11.164Z,97429.28
2023-04-24T16:47:43.956Z,97436.47
2023-04-24T16:50:12.522Z,97435.06
2023-04-24T16:52:40.910Z,97442.94
2023-04-24T16:55:09.911Z,97445.38
2023-04-24T16:57:37.983Z,97440.56
2023-04-24T17:00:11.148Z,97444.75
2023-04-24T17:02:39.148Z,97446.31
2023-04-24T17:05:15.052Z,97440.97
2023-04-24T17:07:43.133Z,97449.44
2023-04-24T17:10:11.853Z,97449.34
2023-04-24T17:12:41.720Z,97452.78
2023-04-24T17:15:12.264Z,97446.97
2023-04-24T17:17:43.641Z,97446.94
2023-04-24T17:20:22.286Z,97453.22
2023-04-24T17:22:53.939Z,97448.50
2023-04-24T17:25:21.923Z,97460.09
2023-04-24T17:27:49.706Z,97458.50
2023-04-24T17:30:20.589Z,97470.91
2023-04-24T17:32:48.501Z,97461.44
2023-04-24T17:35:16.863Z,97478.63
2023-04-24T17:37:44.902Z,97480.16
2023-04-24T17:40:15.728Z,97476.81
2023-04-24T17:42:43.719Z,97486.50
2023-04-24T17:45:16.810Z,97484.72
2023-04-24T17:47:47.582Z,97486.09
2023-04-24T17:50:15.766Z,97492.94
2023-04-24T17:52:43.749Z,97489.56
2023-04-24T17:55:12.608Z,97498.06
2023-04-24T17:57:40.708Z,97504.16
2023-04-24T18:00:09.562Z,97504.16
2023-04-24T18:02:37.503Z,97496.41
2023-04-24T18:05:07.542Z,97510.34
2023-04-24T18:07:35.273Z,97510.22
2023-04-24T18:10:03.701Z,97504.66
2023-04-24T18:12:31.749Z,97508.97
2023-04-24T18:15:12.859Z,97505.66
2023-04-24T18:17:41.891Z,97503.66
2023-04-24T18:20:12.399Z,97504.47
2023-04-24T18:22:40.519Z,97508.88
2023-04-24T18:25:09.712Z,97511.19
2023-04-24T18:27:38.256Z,97507.91
2023-04-24T18:30:07.210Z,97514.88
2023-04-24T18:32:35.412Z,97518.25
2023-04-24T18:35:03.871Z,97523.31
2023-04-24T18:37:34.149Z,97520.03
2023-04-24T18:40:03.908Z,97526.56
2023-04-24T18:42:31.961Z,97525.28
2023-04-24T18:45:04.887Z,97516.69
2023-04-24T18:47:32.946Z,97540.28
2023-04-24T18:50:02.255Z,97534.31
2023-04-24T18:52:31.223Z,97540.50
2023-04-24T18:55:01.599Z,97539.75
2023-04-24T18:57:29.833Z,97545.97
2023-04-24T18:59:57.737Z,97553.00
2023-04-24T19:02:27.494Z,97549.47
2023-04-24T19:04:57.050Z,97552.13
2023-04-24T19:07:24.883Z,97554.41
2023-04-24T19:09:52.993Z,97556.78
2023-04-24T19:12:23.153Z,97557.13
2023-04-24T19:14:51.955Z,97562.16
2023-04-24T19:17:23.677Z,97563.66
2023-04-24T19:19:52.307Z,97567.44
2023-04-24T19:22:20.778Z,97571.44
2023-04-24T19:24:48.597Z,97570.28
2023-04-24T19:27:18.098Z,97572.16
2023-04-24T19:29:47.338Z,97570.84
2023-04-24T19:32:15.225Z,97577.88
2023-04-24T19:34:43.155Z,97566.81
2023-04-24T19:37:10.950Z,97573.84
2023-04-24T19:39:52.703Z,97571.56
2023-04-24T19:42:28.494Z,97577.88
2023-04-24T19:45:07.021Z,97588.44
2023-04-24T19:47:35.142Z,97582.28
2023-04-24T19:50:05.592Z,97585.91
2023-04-24T19:52:34.677Z,97580.56
2023-04-24T19:55:05.179Z,97578.63
2023-04-24T19:57:34.060Z,97582.84
2023-04-24T20:00:02.527Z,97588.09
2023-04-24T20:02:34.190Z,97568.59
2023-04-24T20:05:02.447Z,97573.19
2023-04-24T20:07:33.761Z,97569.31
2023-04-24T20:10:06.177Z,97574.78
2023-04-24T20:12:42.303Z,97570.91
2023-04-24T20:15:11.462Z,97573.78
2023-04-24T20:17:43.573Z,97565.19
2023-04-24T20:20:18.319Z,97573.00
2023-04-24T20:22:50.246Z,97564.75
2023-04-24T20:25:21.494Z,97561.94
2023-04-24T20:27:50.060Z,97571.22
2023-04-24T20:30:22.014Z,97566.50
2023-04-24T20:33:00.126Z,97564.94
2023-04-24T20:35:28.224Z,97563.50
2023-04-24T20:38:02.479Z,97566.06
2023-04-24T20:40:34.388Z,97564.22
2023-04-24T20:43:05.180Z,97557.91
2023-04-24T20:45:33.698Z,97560.28
2023-04-24T20:48:04.215Z,97552.47
2023-04-24T20:50:33.117Z,97547.88
2023-04-24T20:53:03.898Z,97555.19
2023-04-24T20:55:31.709Z,97556.31
2023-04-24T20:58:00.275Z,97553.50
2023-04-24T21:00:31.542Z,97551.75
2023-04-24T21:03:05.605Z,97557.91
2023-04-24T21:05:33.775Z,97560.00
2023-04-24T21:08:03.078Z,97560.00
2023-04-24T21:10:32.478Z,97547.81
2023-04-24T21:13:01.301Z,97552.28
2023-04-24T21:15:31.033Z,97545.94
2023-04-24T21:18:01.283Z,97547.38
2023-04-24T21:20:35.234Z,97537.34
2023-04-24T21:23:10.799Z,97538.84
2023-04-24T21:25:41.358Z,97545.09
2023-04-24T21:28:10.068Z,97544.09
2023-04-24T21:30:39.025Z,97538.91
2023-04-24T21:33:09.217Z,97542.88
2023-04-24T21:35:38.669Z,97540.34
2023-04-24T21:38:07.786Z,97538.41
2023-04-24T21:40:35.842Z,97535.25
2023-04-24T21:43:03.745Z,97539.97
2023-04-24T21:45:35.489Z,97533.06
2023-04-24T21:48:03.636Z,97532.16
2023-04-24T21:50:34.441Z,97528.22
2023-04-24T21:53:05.896Z,97532.97
2023-04-24T21:55:33.914Z,97519.78
2023-04-24T21:58:02.156Z,97522.06
2023-04-24T22:00:30.392Z,97527.50
2023-04-24T22:02:58.563Z,97522.94
2023-04-24T22:05:28.346Z,97526.81
2023-04-24T22:07:59.830Z,97523.19
2023-04-24T22:10:31.618Z,97521.00
2023-04-24T22:13:01.123Z,97525.91
2023-04-24T22:15:31.147Z,97518.19
2023-04-24T22:18:01.239Z,97523.97
2023-04-24T22:20:34.027Z,97507.81
2023-04-24T22:23:02.066Z,97503.31
2023-04-24T22:25:33.134Z,97506.13
2023-04-24T22:28:06.259Z,97511.91
2023-04-24T22:30:34.079Z,97511.13
2023-04-24T22:33:02.087Z,97509.41
2023-04-24T22:35:32.443Z,97513.41
2023-04-24T22:38:00.608Z,97513.41
2023-04-24T22:40:28.689Z,97504.78
2023-04-24T22:43:00.412Z,97508.41
2023-04-24T22:45:28.888Z,97500.66
2023-04-24T22:47:58.179Z,97496.34
2023-04-24T22:50:32.449Z,97503.38
2023-04-24T22:53:01.113Z,97507.44
2023-04-24T22:55:29.227Z,97502.03
2023-04-24T22:58:00.800Z,97502.81
2023-04-24T23:00:29.351Z,97496.66
2023-04-24T23:03:02.093Z,97496.22
2023-04-24T23:05:31.078Z,97498.25
2023-04-24T23:07:59.949Z,97497.81
2023-04-24T23:10:28.017Z,97491.94
2023-04-24T23:12:56.239Z,97486.47
2023-04-24T23:15:28.150Z,97491.94
2023-04-24T23:17:56.177Z,97491.34
2023-04-24T23:20:24.631Z,97486.59
2023-04-24T23:22:56.186Z,97484.75
2023-04-24T23:25:26.650Z,97478.59
2023-04-24T23:27:55.144Z,97475.44
2023-04-24T23:30:23.453Z,97476.94
2023-04-24T23:32:53.451Z,97473.16
2023-04-24T23:35:21.425Z,97476.16
2023-04-24T23:37:49.326Z,97466.13
2023-04-24T23:40:17.335Z,97461.66
2023-04-24T23:42:51.537Z,97456.63
2023-04-24T23:45:24.935Z,97454.94
2023-04-24T23:47:54.580Z,97448.03
2023-04-24T23:50:22.354Z,97444.03
2023-04-24T23:52:51.132Z,97447.91
2023-04-24T23:55:19.077Z,97438.59
2023-04-24T23:57:48.054Z,97448.75
